createdAt,value
2022-10-25T00:02:05.001Z,17.25
2022-10-25T00:04:37.566Z,17.28
2022-10-25T00:07:08.241Z,17.39
2022-10-25T00:09:40.960Z,17.24
2022-10-25T00:12:09.901Z,17.45
2022-10-25T00:14:40.630Z,17.45
2022-10-25T00:17:09.942Z,17.36
2022-10-25T00:19:39.458Z,17.42
2022-10-25T00:22:09.815Z,17.24
2022-10-25T00:24:44.104Z,17.10
2022-10-25T00:27:12.774Z,17.08
2022-10-25T00:29:43.695Z,17.31
2022-10-25T00:32:13.142Z,17.31
2022-10-25T00:34:47.852Z,17.61
2022-10-25T00:37:18.173Z,17.59
2022-10-25T00:39:49.578Z,17.34
2022-10-25T00:42:24.084Z,17.21
2022-10-25T00:44:58.610Z,17.53
2022-10-25T00:47:40.589Z,17.41
2022-10-25T00:50:15.089Z,17.59
2022-10-25T00:52:46.126Z,17.86
2022-10-25T00:55:20.837Z,17.18
2022-10-25T00:58:08.610Z,17.23
2022-10-25T01:00:38.965Z,17.00
2022-10-25T01:03:09.732Z,17.12
2022-10-25T01:05:48.102Z,16.83
2022-10-25T01:08:22.207Z,17.17
2022-10-25T01:10:55.191Z,17.32
2022-10-25T01:13:25.405Z,17.14
2022-10-25T01:16:22.474Z,16.66
2022-10-25T01:18:59.995Z,17.00
2022-10-25T01:21:39.815Z,17.23
2022-10-25T01:24:46.833Z,17.27
2022-10-25T01:27:52.567Z,17.28
2022-10-25T01:30:44.506Z,17.43
2022-10-25T01:33:28.897Z,17.64
2022-10-25T01:36:17.767Z,17.35
2022-10-25T01:39:02.471Z,17.33
2022-10-25T01:41:48.007Z,17.22
2022-10-25T01:44:40.706Z,17.35
2022-10-25T01:47:18.012Z,17.46
2022-10-25T01:49:51.765Z,17.32
2022-10-25T01:52:22.918Z,17.28
2022-10-25T01:54:54.676Z,17.15
2022-10-25T01:57:55.916Z,17.33
2022-10-25T02:00:27.395Z,17.72
2022-10-25T02:03:21.246Z,17.50
2022-10-25T02:06:03.883Z,17.49
2022-10-25T02:08:43.760Z,17.59
2022-10-25T02:11:24.219Z,17.45
2022-10-25T02:13:57.412Z,17.54
2022-10-25T02:16:36.917Z,17.75
2022-10-25T02:19:07.658Z,17.85
2022-10-25T02:21:37.399Z,17.78
2022-10-25T02:24:09.961Z,17.76
2022-10-25T02:26:39.325Z,17.66
2022-10-25T02:29:07.673Z,17.70
2022-10-25T02:31:36.583Z,17.69
2022-10-25T02:34:05.390Z,17.68
2022-10-25T02:36:38.618Z,17.75
2022-10-25T02:39:10.797Z,17.74
2022-10-25T02:41:43.843Z,17.47
2022-10-25T02:44:11.707Z,17.48
2022-10-25T02:46:41.902Z,17.29
2022-10-25T02:49:10.969Z,17.30
2022-10-25T02:51:39.013Z,17.22
2022-10-25T02:54:07.391Z,17.03
2022-10-25T02:56:45.945Z,16.87
2022-10-25T02:59:13.955Z,17.20
2022-10-25T03:01:42.703Z,17.08
2022-10-25T03:04:11.123Z,17.35
2022-10-25T03:06:39.329Z,17.35
2022-10-25T03:09:07.478Z,17.53
2022-10-25T03:11:35.602Z,17.33
2022-10-25T03:14:04.042Z,17.47
2022-10-25T03:16:33.460Z,17.46
2022-10-25T03:19:01.491Z,17.09
2022-10-25T03:21:29.462Z,17.17
2022-10-25T03:23:58.001Z,17.46
2022-10-25T03:26:26.435Z,17.20
2022-10-25T03:28:54.746Z,17.04
2022-10-25T03:31:23.073Z,17.34
2022-10-25T03:33:53.122Z,17.50
2022-10-25T03:36:21.143Z,17.45
2022-10-25T03:38:49.224Z,17.37
2022-10-25T03:41:19.262Z,17.37
2022-10-25T03:43:47.889Z,17.42
2022-10-25T03:46:16.230Z,17.51
2022-10-25T03:48:45.661Z,17.37
2022-10-25T03:51:13.302Z,17.45
2022-10-25T03:53:41.182Z,17.53
2022-10-25T03:56:10.244Z,17.46
2022-10-25T03:58:38.922Z,17.39
2022-10-25T04:01:09.432Z,17.39
2022-10-25T04:03:38.154Z,17.45
2022-10-25T04:06:07.050Z,17.79
2022-10-25T04:08:34.885Z,17.53
2022-10-25T04:11:05.624Z,17.49
2022-10-25T04:13:34.664Z,17.59
2022-10-25T04:16:07.172Z,17.69
2022-10-25T04:18:35.771Z,17.40
2022-10-25T04:21:04.378Z,17.49
2022-10-25T04:23:32.340Z,17.41
2022-10-25T04:26:04.813Z,17.32
2022-10-25T04:28:33.310Z,17.03
2022-10-25T04:31:04.844Z,17.30
2022-10-25T04:33:39.618Z,17.24
2022-10-25T04:36:10.456Z,17.56
2022-10-25T04:38:41.337Z,17.37
2022-10-25T04:41:10.040Z,17.47
2022-10-25T04:43:40.703Z,17.44
2022-10-25T04:46:09.158Z,17.61
2022-10-25T04:48:40.349Z,17.67
2022-10-25T04:51:10.041Z,17.70
2022-10-25T04:53:38.921Z,17.74
2022-10-25T04:56:08.934Z,17.65
2022-10-25T04:58:37.061Z,17.18
2022-10-25T05:01:08.200Z,17.02
2022-10-25T05:03:37.020Z,17.03
2022-10-25T05:06:17.912Z,16.65
2022-10-25T05:08:49.312Z,16.62
2022-10-25T05:11:20.879Z,16.41
2022-10-25T05:13:49.585Z,16.78
2022-10-25T05:16:24.487Z,17.08
2022-10-25T05:18:56.986Z,17.06
2022-10-25T05:21:30.826Z,17.18
2022-10-25T05:24:02.148Z,17.37
2022-10-25T05:26:34.844Z,17.38
2022-10-25T05:29:07.890Z,17.49
2022-10-25T05:31:57.955Z,17.44
2022-10-25T05:34:29.929Z,17.54
2022-10-25T05:37:14.301Z,17.49
2022-10-25T05:39:50.767Z,17.42
2022-10-25T05:42:19.869Z,17.49
2022-10-25T05:44:48.207Z,16.74
2022-10-25T05:47:16.352Z,16.84
2022-10-25T05:49:44.771Z,16.76
2022-10-25T05:52:15.017Z,16.98
2022-10-25T05:54:45.819Z,17.08
2022-10-25T05:57:14.590Z,17.28
2022-10-25T05:59:45.043Z,17.61
2022-10-25T06:02:13.402Z,17.56
2022-10-25T06:04:41.902Z,17.65
2022-10-25T06:07:10.223Z,17.81
2022-10-25T06:09:38.573Z,17.61
2022-10-25T06:12:09.581Z,17.50
2022-10-25T06:14:40.980Z,17.16
2022-10-25T06:17:09.328Z,16.62
2022-10-25T06:19:37.008Z,17.00
2022-10-25T06:22:04.896Z,17.13
2022-10-25T06:24:33.952Z,16.99
2022-10-25T06:27:02.920Z,16.98
2022-10-25T06:29:31.175Z,17.18
2022-10-25T06:32:01.058Z,16.78
2022-10-25T06:34:32.718Z,17.15
2022-10-25T06:37:01.781Z,17.11
2022-10-25T06:39:30.939Z,17.49
2022-10-25T06:42:02.413Z,17.60
2022-10-25T06:44:31.939Z,17.82
2022-10-25T06:47:17.667Z,17.76
2022-10-25T06:49:46.139Z,17.90
2022-10-25T06:52:14.181Z,17.78
2022-10-25T06:54:42.317Z,17.86
2022-10-25T06:57:14.666Z,17.90
2022-10-25T06:59:48.650Z,17.91
2022-10-25T07:02:19.998Z,17.93
2022-10-25T07:05:08.411Z,17.82
2022-10-25T07:07:42.024Z,17.78
2022-10-25T07:10:26.282Z,17.64
2022-10-25T07:12:54.639Z,16.96
2022-10-25T07:15:25.105Z,17.45
2022-10-25T07:17:55.561Z,16.94
2022-10-25T07:20:24.533Z,17.08
2022-10-25T07:22:55.529Z,17.06
2022-10-25T07:25:31.913Z,17.45
2022-10-25T07:28:01.955Z,17.37
2022-10-25T07:30:30.593Z,17.48
2022-10-25T07:32:58.528Z,17.85
2022-10-25T07:35:26.933Z,17.63
2022-10-25T07:37:58.793Z,18.00
2022-10-25T07:40:27.314Z,17.77
2022-10-25T07:42:55.443Z,18.08
2022-10-25T07:45:25.345Z,18.06
2022-10-25T07:47:57.017Z,18.23
2022-10-25T07:50:24.567Z,18.33
2022-10-25T07:52:52.683Z,18.38
2022-10-25T07:55:21.767Z,18.09
2022-10-25T07:57:50.949Z,18.27
2022-10-25T08:00:18.795Z,18.29
2022-10-25T08:02:47.372Z,18.24
2022-10-25T08:05:15.226Z,18.53
2022-10-25T08:07:43.322Z,18.49
2022-10-25T08:10:11.712Z,18.51
2022-10-25T08:12:39.563Z,18.40
2022-10-25T08:15:07.844Z,18.85
2022-10-25T08:17:35.758Z,18.46
2022-10-25T08:20:08.614Z,18.36
2022-10-25T08:22:36.579Z,18.32
2022-10-25T08:25:05.510Z,18.25
2022-10-25T08:27:33.235Z,18.45
2022-10-25T08:30:01.183Z,18.41
2022-10-25T08:32:30.064Z,18.11
2022-10-25T08:34:58.022Z,18.29
2022-10-25T08:37:26.114Z,18.31
2022-10-25T08:39:55.678Z,18.26
2022-10-25T08:42:33.603Z,18.20
2022-10-25T08:45:12.502Z,18.42
2022-10-25T08:47:44.202Z,18.27
2022-10-25T08:50:32.382Z,18.56
2022-10-25T08:53:05.011Z,18.42
2022-10-25T08:55:41.651Z,18.75
2022-10-25T08:58:26.410Z,18.95
2022-10-25T09:00:56.547Z,19.03
2022-10-25T09:03:26.360Z,18.69
2022-10-25T09:06:13.145Z,18.92
2022-10-25T09:09:25.687Z,19.11
2022-10-25T09:12:04.180Z,19.11
2022-10-25T09:15:03.077Z,19.11
2022-10-25T09:17:48.086Z,19.13
2022-10-25T09:20:30.942Z,19.03
2022-10-25T09:23:07.481Z,18.93
2022-10-25T09:26:17.525Z,19.02
2022-10-25T09:28:47.580Z,19.18
2022-10-25T09:31:24.492Z,19.39
2022-10-25T09:34:06.425Z,19.09
2022-10-25T09:36:43.343Z,19.41
2022-10-25T09:39:32.256Z,19.34
2022-10-25T09:42:01.653Z,19.56
2022-10-25T09:44:30.321Z,19.35
2022-10-25T09:47:03.234Z,19.14
2022-10-25T09:49:42.693Z,19.27
2022-10-25T09:52:46.715Z,19.27
2022-10-25T09:55:21.789Z,19.39
2022-10-25T09:57:50.263Z,18.59
2022-10-25T10:00:21.035Z,19.09
2022-10-25T10:02:53.716Z,18.66
2022-10-25T10:05:31.506Z,19.30
2022-10-25T10:08:02.095Z,19.40
2022-10-25T10:10:39.383Z,19.53
2022-10-25T10:13:08.912Z,19.45
2022-10-25T10:15:50.887Z,19.48
2022-10-25T10:18:26.045Z,19.34
2022-10-25T10:21:37.465Z,19.62
2022-10-25T10:24:26.369Z,19.80
2022-10-25T10:27:02.413Z,19.75
2022-10-25T10:29:42.087Z,19.73
2022-10-25T10:35:30.036Z,19.94
2022-10-25T10:38:23.922Z,19.84
2022-10-25T10:41:20.792Z,19.91
2022-10-25T10:44:12.904Z,19.95
2022-10-25T10:47:28.779Z,19.90
2022-10-25T10:50:03.446Z,20.00
2022-10-25T10:52:40.383Z,19.97
2022-10-25T10:55:20.575Z,20.09
2022-10-25T10:57:48.830Z,20.14
2022-10-25T11:00:24.222Z,20.15
2022-10-25T11:02:53.129Z,20.17
2022-10-25T11:05:33.675Z,20.11
2022-10-25T11:08:22.891Z,20.21
2022-10-25T11:10:51.357Z,20.16
2022-10-25T11:13:22.167Z,20.24
2022-10-25T11:15:53.099Z,20.33
2022-10-25T11:18:36.832Z,20.53
2022-10-25T11:21:29.842Z,20.40
2022-10-25T11:24:41.678Z,20.78
2022-10-25T11:27:23.521Z,21.00
2022-10-25T11:30:02.738Z,20.89
2022-10-25T11:33:17.762Z,20.79
2022-10-25T11:36:32.294Z,20.88
2022-10-25T11:39:29.222Z,21.11
2022-10-25T11:42:16.406Z,21.32
2022-10-25T11:45:12.704Z,21.59
2022-10-25T11:48:20.466Z,22.07
2022-10-25T11:50:55.039Z,21.99
2022-10-25T11:53:42.063Z,22.31
2022-10-25T11:56:25.586Z,22.59
2022-10-25T11:59:20.760Z,22.93
2022-10-25T12:02:10.920Z,23.03
2022-10-25T12:04:44.570Z,23.15
2022-10-25T12:07:37.192Z,23.27
2022-10-25T12:10:22.167Z,23.15
2022-10-25T12:13:22.824Z,23.24
2022-10-25T12:16:16.483Z,23.44
2022-10-25T12:19:06.820Z,23.52
2022-10-25T12:22:01.777Z,23.66
2022-10-25T12:24:53.381Z,23.76
2022-10-25T12:27:37.267Z,23.78
2022-10-25T12:30:17.266Z,24.06
2022-10-25T12:33:11.105Z,24.13
2022-10-25T12:36:09.525Z,24.20
2022-10-25T12:38:40.599Z,24.52
2022-10-25T12:41:28.553Z,24.72
2022-10-25T12:44:31.745Z,24.85
2022-10-25T12:47:33.252Z,25.01
2022-10-25T12:50:21.897Z,25.07
2022-10-25T12:53:17.158Z,25.29
2022-10-25T12:56:09.442Z,25.11
2022-10-25T12:58:57.428Z,25.38
2022-10-25T13:01:46.463Z,25.50
2022-10-25T13:04:20.169Z,25.20
2022-10-25T13:06:57.713Z,25.21
2022-10-25T13:10:03.868Z,25.33
2022-10-25T13:12:46.830Z,25.61
2022-10-25T13:15:52.870Z,25.27
2022-10-25T13:19:00.311Z,25.09
2022-10-25T13:22:04.838Z,25.49
2022-10-25T13:24:56.516Z,25.36
2022-10-25T13:28:32.729Z,25.64
2022-10-25T13:31:44.614Z,25.88
2022-10-25T13:35:23.652Z,25.74
2022-10-25T13:38:15.406Z,25.73
2022-10-25T13:40:44.882Z,25.71
2022-10-25T13:43:25.054Z,26.01
2022-10-25T13:46:02.506Z,25.91
2022-10-25T13:50:09.046Z,25.97
2022-10-25T13:53:58.147Z,26.07
2022-10-25T14:00:51.598Z,26.42
2022-10-25T14:05:03.480Z,26.56
2022-10-25T14:11:26.410Z,27.09
2022-10-25T14:18:01.664Z,28.94
2022-10-25T14:24:00.544Z,31.17
2022-10-25T14:30:10.007Z,32.23
2022-10-25T14:33:13.112Z,32.59
2022-10-25T14:36:32.906Z,33.29
2022-10-25T14:40:02.277Z,34.10
2022-10-25T14:42:40.616Z,34.38
2022-10-25T14:45:59.895Z,33.77
2022-10-25T14:48:53.527Z,32.30
2022-10-25T14:51:56.764Z,30.79
2022-10-25T14:54:41.414Z,29.58
2022-10-25T14:57:29.922Z,28.47
2022-10-25T15:00:10.999Z,27.89
2022-10-25T15:02:47.742Z,26.99
2022-10-25T15:05:25.165Z,26.63
2022-10-25T15:07:59.559Z,26.08
2022-10-25T15:10:48.184Z,25.33
2022-10-25T15:13:36.505Z,25.10
2022-10-25T15:16:47.015Z,24.52
2022-10-25T15:19:21.569Z,24.50
2022-10-25T15:22:07.848Z,24.35
2022-10-25T15:24:46.890Z,23.73
2022-10-25T15:27:35.508Z,23.68
2022-10-25T15:30:04.970Z,23.46
2022-10-25T15:32:37.327Z,23.17
2022-10-25T15:35:22.610Z,23.00
2022-10-25T15:37:51.469Z,22.59
2022-10-25T15:40:22.524Z,22.64
2022-10-25T15:42:51.957Z,22.67
2022-10-25T15:45:23.642Z,22.43
2022-10-25T15:47:55.289Z,22.50
2022-10-25T15:50:24.104Z,22.36
2022-10-25T15:52:54.754Z,22.03
2022-10-25T15:55:25.183Z,21.75
2022-10-25T15:57:53.477Z,21.93
2022-10-25T16:00:27.183Z,21.83
2022-10-25T16:02:58.073Z,21.65
2022-10-25T16:05:34.372Z,21.35
2022-10-25T16:08:03.910Z,21.42
2022-10-25T16:10:33.169Z,21.60
2022-10-25T16:13:08.529Z,21.13
2022-10-25T16:15:36.381Z,21.68
2022-10-25T16:18:05.473Z,21.09
2022-10-25T16:20:34.863Z,20.69
2022-10-25T16:23:02.868Z,21.02
2022-10-25T16:25:32.912Z,20.62
2022-10-25T16:28:01.847Z,20.74
2022-10-25T16:30:36.481Z,21.01
2022-10-25T16:33:06.709Z,20.77
2022-10-25T16:35:35.238Z,20.52
2022-10-25T16:38:04.619Z,20.52
2022-10-25T16:40:33.549Z,20.48
2022-10-25T16:43:01.453Z,20.35
2022-10-25T16:45:32.533Z,19.95
2022-10-25T16:48:01.147Z,19.56
2022-10-25T16:50:31.004Z,19.51
2022-10-25T16:53:01.412Z,19.54
2022-10-25T16:55:31.265Z,19.57
2022-10-25T16:58:00.239Z,19.26
2022-10-25T17:00:32.404Z,19.16
2022-10-25T17:03:01.841Z,19.10
2022-10-25T17:05:33.190Z,18.96
2022-10-25T17:08:04.590Z,18.69
2022-10-25T17:10:32.576Z,18.40
2022-10-25T17:13:05.591Z,18.03
2022-10-25T17:15:34.307Z,18.12
2022-10-25T17:18:03.942Z,18.31
2022-10-25T17:20:33.655Z,18.55
2022-10-25T17:23:02.565Z,18.45
2022-10-25T17:25:31.024Z,18.38
2022-10-25T17:27:58.728Z,18.31
2022-10-25T17:30:26.636Z,18.14
2022-10-25T17:32:59.463Z,17.92
2022-10-25T17:35:32.872Z,18.12
2022-10-25T17:38:10.443Z,17.94
2022-10-25T17:40:40.278Z,17.99
2022-10-25T17:43:09.433Z,17.86
2022-10-25T17:45:38.658Z,17.70
2022-10-25T17:48:07.057Z,17.63
2022-10-25T17:50:37.284Z,17.75
2022-10-25T17:53:07.810Z,17.54
2022-10-25T17:55:42.336Z,17.50
2022-10-25T17:58:11.803Z,17.55
2022-10-25T18:00:41.297Z,17.53
2022-10-25T18:03:10.268Z,17.59
2022-10-25T18:05:42.998Z,17.02
2022-10-25T18:08:13.403Z,17.18
2022-10-25T18:10:42.597Z,17.26
2022-10-25T18:13:13.167Z,17.37
2022-10-25T18:15:41.496Z,17.65
2022-10-25T18:18:12.001Z,17.42
2022-10-25T18:20:41.932Z,17.62
2022-10-25T18:23:14.369Z,17.65
2022-10-25T18:25:53.490Z,17.41
2022-10-25T18:28:22.083Z,17.25
2022-10-25T18:30:51.508Z,17.38
2022-10-25T18:33:24.079Z,17.10
2022-10-25T18:36:04.564Z,17.15
2022-10-25T18:38:35.635Z,17.17
2022-10-25T18:41:11.068Z,17.09
2022-10-25T18:43:40.759Z,16.93
2022-10-25T18:46:10.432Z,16.78
2022-10-25T18:48:40.471Z,16.74
2022-10-25T18:51:12.145Z,16.67
2022-10-25T18:53:42.373Z,16.62
2022-10-25T18:56:17.082Z,16.98
2022-10-25T18:58:47.999Z,16.98
2022-10-25T19:01:23.767Z,17.05
2022-10-25T19:03:55.893Z,16.90
2022-10-25T19:06:28.165Z,16.24
2022-10-25T19:08:58.046Z,16.55
2022-10-25T19:11:31.143Z,16.58
2022-10-25T19:14:01.558Z,16.65
2022-10-25T19:16:31.408Z,16.45
2022-10-25T19:19:04.811Z,16.11
2022-10-25T19:21:35.737Z,16.01
2022-10-25T19:24:06.222Z,15.77
2022-10-25T19:26:35.789Z,15.68
2022-10-25T19:29:04.789Z,16.08
2022-10-25T19:31:33.351Z,16.09
2022-10-25T19:34:04.090Z,15.81
2022-10-25T19:36:33.375Z,15.96
2022-10-25T19:39:05.784Z,15.97
2022-10-25T19:41:36.830Z,15.62
2022-10-25T19:44:05.930Z,15.38
2022-10-25T19:46:38.157Z,15.49
2022-10-25T19:49:12.293Z,15.48
2022-10-25T19:51:41.350Z,15.40
2022-10-25T19:54:11.321Z,15.24
2022-10-25T19:56:43.360Z,15.06
2022-10-25T19:59:14.063Z,15.19
2022-10-25T20:01:46.315Z,14.96
2022-10-25T20:04:15.779Z,15.24
2022-10-25T20:06:47.392Z,15.53
2022-10-25T20:09:20.511Z,15.22
2022-10-25T20:11:56.395Z,15.09
2022-10-25T20:14:33.698Z,15.25
2022-10-25T20:17:04.450Z,15.07
2022-10-25T20:19:39.100Z,15.11
2022-10-25T20:22:12.752Z,15.48
2022-10-25T20:24:42.376Z,15.56
2022-10-25T20:27:12.501Z,15.78
2022-10-25T20:29:42.361Z,15.39
2022-10-25T20:32:15.297Z,15.24
2022-10-25T20:34:43.447Z,15.08
2022-10-25T20:37:15.634Z,15.29
2022-10-25T20:39:46.502Z,15.10
2022-10-25T20:42:15.834Z,15.53
2022-10-25T20:44:45.527Z,15.49
2022-10-25T20:47:14.962Z,15.05
2022-10-25T20:49:43.919Z,15.22
2022-10-25T20:52:12.109Z,15.03
2022-10-25T20:54:40.600Z,14.99
2022-10-25T20:57:10.196Z,14.95
2022-10-25T20:59:38.920Z,14.85
2022-10-25T21:02:09.062Z,14.89
2022-10-25T21:04:42.661Z,14.97
2022-10-25T21:07:18.533Z,14.73
2022-10-25T21:09:49.376Z,14.33
2022-10-25T21:12:21.540Z,14.45
2022-10-25T21:14:52.069Z,14.57
2022-10-25T21:17:21.403Z,14.09
2022-10-25T21:19:49.450Z,14.25
2022-10-25T21:22:17.025Z,14.11
2022-10-25T21:24:46.544Z,14.20
2022-10-25T21:27:18.244Z,14.36
2022-10-25T21:29:49.144Z,14.52
2022-10-25T21:32:16.827Z,14.40
2022-10-25T21:34:45.281Z,14.91
2022-10-25T21:37:15.802Z,15.06
2022-10-25T21:39:46.028Z,15.25
2022-10-25T21:42:15.073Z,15.12
2022-10-25T21:44:43.845Z,14.93
2022-10-25T21:47:11.919Z,14.48
2022-10-25T21:49:42.139Z,14.50
2022-10-25T21:52:10.373Z,14.59
2022-10-25T21:54:39.520Z,14.44
2022-10-25T21:57:09.640Z,14.85
2022-10-25T21:59:37.774Z,14.63
2022-10-25T22:02:13.253Z,14.57
2022-10-25T22:04:44.408Z,14.51
2022-10-25T22:07:12.777Z,14.68
2022-10-25T22:09:42.402Z,14.90
2022-10-25T22:12:12.761Z,14.33
2022-10-25T22:14:49.568Z,14.18
2022-10-25T22:17:18.506Z,14.27
2022-10-25T22:19:50.692Z,14.03
2022-10-25T22:22:35.554Z,14.03
2022-10-25T22:25:08.010Z,14.16
2022-10-25T22:27:39.323Z,14.15
2022-10-25T22:30:11.206Z,13.90
2022-10-25T22:32:40.971Z,14.05
2022-10-25T22:35:17.728Z,13.85
2022-10-25T22:37:48.701Z,13.78
2022-10-25T22:40:20.016Z,13.67
2022-10-25T22:42:50.854Z,13.82
2022-10-25T22:45:24.094Z,13.88
2022-10-25T22:47:54.019Z,13.86
2022-10-25T22:50:26.619Z,14.22
2022-10-25T22:53:00.572Z,14.35
2022-10-25T22:55:33.190Z,14.38
2022-10-25T22:58:06.701Z,14.14
2022-10-25T23:00:36.219Z,14.11
2022-10-25T23:03:06.968Z,13.93
2022-10-25T23:05:38.888Z,13.79
2022-10-25T23:08:09.091Z,14.00
2022-10-25T23:10:42.931Z,13.85
2022-10-25T23:13:15.031Z,13.81
2022-10-25T23:15:50.586Z,13.28
2022-10-25T23:18:21.611Z,13.17
2022-10-25T23:21:02.056Z,13.27
2022-10-25T23:23:36.048Z,13.44
2022-10-25T23:26:09.840Z,13.29
2022-10-25T23:28:40.906Z,13.50
2022-10-25T23:31:14.903Z,13.36
2022-10-25T23:33:47.217Z,13.39
2022-10-25T23:36:17.961Z,13.20
2022-10-25T23:38:50.974Z,13.48
2022-10-25T23:41:22.948Z,13.33
2022-10-25T23:43:56.107Z,13.16
2022-10-25T23:46:29.262Z,12.80
2022-10-25T23:48:59.891Z,12.67
2022-10-25T23:51:31.012Z,12.89
2022-10-25T23:54:01.968Z,12.98
2022-10-25T23:56:34.443Z,12.78
2022-10-25T23:59:06.716Z,13.00
